KMCO

Orlando International Airport

Orlando, Florida, USA
METAR KMCO 271153Z 09007KT 10SM SCT020 BKN050 OVC070 23/23 A2981 RMK AO2 RAE47 SLP092 P0000 60000 70004 T02330228 10233 20222 53001
Observed Flight Rules
May-27 @ 11:53 UTC (8 minutes ago) Visual Flight Rules
Wind Visibility Clouds
90° at 7 knots 10 miles
  • Scattered at 2,000' AGL
  • Broken at 5,000' AGL
  • Overcast at 7,000' AGL
Temperatures Readings Precipitation
Current 23°C / 73°F
Dewpoint 23°C / 73°F
Humidity 100%
Altimeter 29.81" Hg
Pressure 1009.2 hPa
Elevation 29
Current Rain 0.005
METAR KMCO 271153Z 09007KT 10SM SCT020 BKN050 OVC070 23/23 A2981 RMK AO2 RAE47 SLP092 P0000 60000 70004 T02330228 10233 20222 53001
Observed Flight Rules
May-27 @ 11:53 UTC
(8 minutes ago)
VFR
Wind Visibility
90° at 7 knots 10 miles
Clouds
  • Scattered at 2,000' AGL
  • Broken at 5,000' AGL
  • Overcast at 7,000' AGL
Temperature Dewpoint
23°C / 73°F 23°C / 73°F
Humidity Altimeter Pressure
100% 29.81" Hg 1009.2 hPa
Current Rain
0.005